createdAt,value
2023-05-06T00:02:47.337Z,100.00
2023-05-06T00:05:50.553Z,100.00
2023-05-06T00:08:53.366Z,100.00
2023-05-06T00:11:56.798Z,100.00
2023-05-06T00:14:59.712Z,100.00
2023-05-06T00:18:03.195Z,100.00
2023-05-06T00:21:06.149Z,100.00
2023-05-06T00:24:09.053Z,100.00
2023-05-06T00:27:11.780Z,100.00
2023-05-06T00:30:14.628Z,100.00
2023-05-06T00:33:17.411Z,100.00
2023-05-06T00:36:20.179Z,100.00
2023-05-06T00:39:23.040Z,100.00
2023-05-06T00:42:25.891Z,100.00
2023-05-06T00:45:28.750Z,100.00
2023-05-06T00:48:31.499Z,100.00
2023-05-06T00:51:34.494Z,100.00
2023-05-06T00:54:37.816Z,100.00
2023-05-06T00:57:40.760Z,100.00
2023-05-06T01:00:43.772Z,100.00
2023-05-06T01:03:47.290Z,100.00
2023-05-06T01:06:51.681Z,100.00
2023-05-06T01:10:18.985Z,100.00
2023-05-06T01:13:31.080Z,100.00
2023-05-06T01:16:36.911Z,100.00
2023-05-06T01:19:49.236Z,100.00
2023-05-06T01:22:52.481Z,100.00
2023-05-06T01:25:55.263Z,100.00
2023-05-06T01:28:58.778Z,100.00
2023-05-06T01:32:32.155Z,100.00
2023-05-06T01:36:13.194Z,100.00
2023-05-06T01:39:27.062Z,100.00
2023-05-06T01:42:31.509Z,100.00
2023-05-06T01:45:36.883Z,100.00
2023-05-06T01:48:39.981Z,100.00
2023-05-06T01:51:48.395Z,100.00
2023-05-06T01:54:51.081Z,100.00
2023-05-06T01:57:55.880Z,100.00
2023-05-06T02:00:59.285Z,100.00
2023-05-06T02:04:02.430Z,100.00
2023-05-06T02:07:05.434Z,100.00
2023-05-06T02:10:09.165Z,100.00
2023-05-06T02:13:15.127Z,100.00
2023-05-06T02:16:18.452Z,100.00
2023-05-06T02:19:21.777Z,100.00
2023-05-06T02:22:24.631Z,100.00
2023-05-06T02:25:27.782Z,100.00
2023-05-06T02:28:30.649Z,100.00
2023-05-06T02:31:34.022Z,100.00
2023-05-06T02:34:38.130Z,100.00
2023-05-06T02:37:40.930Z,100.00
2023-05-06T02:40:43.853Z,100.00
2023-05-06T02:43:46.701Z,100.00
2023-05-06T02:46:49.549Z,100.00
2023-05-06T02:49:52.428Z,100.00
2023-05-06T02:52:55.488Z,100.00
2023-05-06T02:55:58.435Z,100.00
2023-05-06T02:59:01.674Z,100.00
2023-05-06T03:02:04.506Z,100.00
2023-05-06T03:05:08.241Z,100.00
2023-05-06T03:08:11.326Z,100.00
2023-05-06T03:11:14.243Z,100.00
2023-05-06T03:14:17.255Z,100.00
2023-05-06T03:17:20.082Z,100.00
2023-05-06T03:20:22.979Z,100.00
2023-05-06T03:23:30.158Z,100.00
2023-05-06T03:26:33.634Z,100.00
2023-05-06T03:29:36.520Z,100.00
2023-05-06T03:32:40.129Z,100.00
2023-05-06T03:35:46.363Z,100.00
2023-05-06T03:38:50.254Z,100.00
2023-05-06T03:41:53.900Z,100.00
2023-05-06T03:44:56.867Z,100.00
2023-05-06T03:48:00.176Z,100.00
2023-05-06T03:51:04.474Z,100.00
2023-05-06T03:54:07.538Z,100.00
2023-05-06T03:57:11.601Z,100.00
2023-05-06T04:00:15.101Z,100.00
2023-05-06T04:03:22.970Z,100.00
2023-05-06T04:06:27.635Z,100.00
2023-05-06T04:09:33.110Z,100.00
2023-05-06T04:12:38.002Z,100.00
2023-05-06T04:15:42.813Z,100.00
2023-05-06T04:18:49.689Z,100.00
2023-05-06T04:21:52.996Z,100.00
2023-05-06T04:24:56.621Z,100.00
2023-05-06T04:28:00.526Z,100.00
2023-05-06T04:31:04.208Z,100.00
2023-05-06T04:34:27.980Z,100.00
2023-05-06T04:37:35.612Z,100.00
2023-05-06T04:40:44.373Z,100.00
2023-05-06T04:43:47.431Z,100.00
2023-05-06T04:46:56.280Z,100.00
2023-05-06T04:49:59.292Z,100.00
2023-05-06T04:53:03.349Z,100.00
2023-05-06T04:56:07.119Z,100.00
2023-05-06T04:59:10.746Z,100.00
2023-05-06T05:02:14.921Z,100.00
2023-05-06T05:05:19.994Z,100.00
2023-05-06T05:08:27.123Z,100.00
2023-05-06T05:11:30.076Z,100.00
2023-05-06T05:14:34.524Z,100.00
2023-05-06T05:17:38.140Z,100.00
2023-05-06T05:20:42.082Z,100.00
2023-05-06T05:23:48.027Z,100.00
2023-05-06T05:26:50.970Z,100.00
2023-05-06T05:29:54.469Z,100.00
2023-05-06T05:32:57.728Z,100.00
2023-05-06T05:36:00.676Z,100.00
2023-05-06T05:39:05.235Z,100.00
2023-05-06T05:42:11.132Z,100.00
2023-05-06T05:45:16.828Z,100.00
2023-05-06T05:48:20.799Z,100.00
2023-05-06T05:51:24.074Z,100.00
2023-05-06T05:54:28.142Z,100.00
2023-05-06T05:57:31.249Z,100.00
2023-05-06T06:00:34.113Z,100.00
2023-05-06T06:03:45.031Z,100.00
2023-05-06T06:06:47.959Z,100.00
2023-05-06T06:09:50.868Z,98.41
2023-05-06T06:12:54.136Z,98.94
2023-05-06T06:16:01.567Z,99.06
2023-05-06T06:19:04.732Z,98.74
2023-05-06T06:22:07.874Z,98.37
2023-05-06T06:25:11.850Z,99.25
2023-05-06T06:28:14.852Z,98.49
2023-05-06T06:31:17.891Z,90.95
2023-05-06T06:34:20.867Z,89.59
2023-05-06T06:37:23.641Z,88.47
2023-05-06T06:40:26.538Z,87.29
2023-05-06T06:43:29.410Z,87.97
2023-05-06T06:46:37.539Z,84.96
2023-05-06T06:49:40.903Z,82.67
2023-05-06T06:52:43.710Z,84.91
2023-05-06T06:55:46.920Z,84.11
2023-05-06T06:58:51.778Z,82.56
2023-05-06T07:01:55.872Z,84.67
2023-05-06T07:04:58.651Z,82.85
2023-05-06T07:08:01.522Z,82.45
2023-05-06T07:11:05.566Z,81.95
2023-05-06T07:14:08.476Z,80.92
2023-05-06T07:17:11.925Z,80.48
2023-05-06T07:20:14.752Z,81.36
2023-05-06T07:23:17.475Z,80.27
2023-05-06T07:26:21.605Z,80.13
2023-05-06T07:29:24.755Z,81.44
2023-05-06T07:32:27.626Z,79.58
2023-05-06T07:35:30.803Z,78.60
2023-05-06T07:38:33.789Z,78.15
2023-05-06T07:41:36.787Z,78.08
2023-05-06T07:44:40.261Z,76.39
2023-05-06T07:47:43.222Z,77.18
2023-05-06T07:50:46.268Z,75.25
2023-05-06T07:53:49.402Z,74.28
2023-05-06T07:56:52.231Z,74.64
2023-05-06T07:59:55.576Z,78.54
2023-05-06T08:03:00.368Z,73.52
2023-05-06T08:06:03.400Z,75.01
2023-05-06T08:09:06.191Z,74.95
2023-05-06T08:12:09.706Z,74.56
2023-05-06T08:15:12.823Z,71.23
2023-05-06T08:18:22.446Z,72.07
2023-05-06T08:21:25.971Z,69.61
2023-05-06T08:24:28.764Z,69.40
2023-05-06T08:27:31.795Z,70.47
2023-05-06T08:30:34.644Z,71.55
2023-05-06T08:33:37.376Z,71.68
2023-05-06T08:36:40.370Z,69.05
2023-05-06T08:39:43.181Z,65.31
2023-05-06T08:42:47.970Z,69.96
2023-05-06T08:45:51.249Z,67.47
2023-05-06T08:48:54.099Z,64.86
2023-05-06T08:51:58.324Z,64.94
2023-05-06T08:55:05.088Z,68.04
2023-05-06T08:58:08.502Z,63.49
2023-05-06T09:01:11.411Z,61.79
2023-05-06T09:04:14.325Z,63.94
2023-05-06T09:07:17.486Z,64.75
2023-05-06T09:10:20.651Z,64.42
2023-05-06T09:13:24.798Z,65.37
2023-05-06T09:16:29.640Z,61.19
2023-05-06T09:19:32.479Z,60.96
2023-05-06T09:22:39.588Z,59.99
2023-05-06T09:25:43.863Z,62.89
2023-05-06T09:28:47.225Z,63.52
2023-05-06T09:31:51.341Z,61.97
2023-05-06T09:34:55.021Z,64.14
2023-05-06T09:37:57.802Z,62.13
2023-05-06T09:41:00.645Z,59.65
2023-05-06T09:44:03.929Z,58.07
2023-05-06T09:47:07.332Z,62.68
2023-05-06T09:50:10.678Z,60.88
2023-05-06T09:53:13.978Z,59.15
2023-05-06T09:56:17.300Z,60.88
2023-05-06T09:59:20.819Z,59.22
2023-05-06T10:02:24.147Z,61.83
2023-05-06T10:05:29.013Z,57.37
2023-05-06T10:08:34.206Z,55.01
2023-05-06T10:11:37.322Z,51.62
2023-05-06T10:14:40.181Z,51.85
2023-05-06T10:17:45.412Z,51.25
2023-05-06T10:20:49.219Z,50.73
2023-05-06T10:23:57.627Z,55.75
2023-05-06T10:27:05.096Z,51.99
2023-05-06T10:30:09.597Z,52.90
2023-05-06T10:33:14.668Z,50.08
2023-05-06T10:36:21.715Z,51.04
2023-05-06T10:39:25.079Z,55.02
2023-05-06T10:42:30.764Z,47.38
2023-05-06T10:46:10.931Z,47.52
2023-05-06T10:49:14.126Z,46.30
2023-05-06T10:52:21.156Z,48.26
2023-05-06T10:55:33.887Z,49.41
2023-05-06T10:58:37.815Z,49.37
2023-05-06T11:01:44.524Z,48.73
2023-05-06T11:04:59.793Z,50.53
2023-05-06T11:08:12.914Z,48.70
2023-05-06T11:11:54.945Z,47.09
2023-05-06T11:15:18.463Z,46.25
2023-05-06T11:18:31.955Z,46.61
2023-05-06T11:21:37.761Z,45.34
2023-05-06T11:24:42.056Z,48.33
2023-05-06T11:27:44.959Z,48.81
2023-05-06T11:30:55.698Z,49.41
2023-05-06T11:33:59.906Z,50.10
2023-05-06T11:37:05.090Z,52.14
2023-05-06T11:40:14.868Z,51.94
2023-05-06T11:43:17.740Z,53.02
2023-05-06T11:46:21.685Z,53.58
2023-05-06T11:49:25.731Z,53.11
2023-05-06T11:52:30.922Z,53.18
2023-05-06T11:55:33.799Z,53.33
2023-05-06T11:58:36.765Z,53.55
2023-05-06T12:01:42.618Z,54.45
2023-05-06T12:04:50.236Z,54.10
2023-05-06T12:07:53.427Z,54.60
2023-05-06T12:11:01.997Z,54.31
2023-05-06T12:14:07.271Z,52.78
2023-05-06T12:17:10.445Z,52.50
2023-05-06T12:20:13.642Z,51.94
2023-05-06T12:23:17.190Z,51.46
2023-05-06T12:26:20.555Z,49.90
2023-05-06T12:29:23.467Z,51.02
2023-05-06T12:32:26.361Z,49.72
2023-05-06T12:35:30.142Z,47.31
2023-05-06T12:38:33.237Z,46.76
2023-05-06T12:41:41.841Z,46.27
2023-05-06T12:44:44.740Z,47.22
2023-05-06T12:47:58.567Z,48.12
2023-05-06T12:51:01.708Z,45.22
2023-05-06T12:54:24.941Z,44.44
2023-05-06T12:57:28.276Z,45.75
2023-05-06T13:00:31.036Z,45.21
2023-05-06T13:03:38.198Z,47.37
2023-05-06T13:06:41.541Z,46.67
2023-05-06T13:09:44.960Z,45.69
2023-05-06T13:12:47.961Z,47.30
2023-05-06T13:15:52.912Z,49.12
2023-05-06T13:18:55.786Z,50.30
2023-05-06T13:21:59.048Z,49.92
2023-05-06T13:25:01.917Z,50.39
2023-05-06T13:28:05.183Z,50.15
2023-05-06T13:31:08.420Z,49.73
2023-05-06T13:34:11.311Z,50.18
2023-05-06T13:37:14.560Z,50.35
2023-05-06T13:40:17.521Z,49.11
2023-05-06T13:43:21.470Z,49.02
2023-05-06T13:46:24.353Z,47.27
2023-05-06T13:49:27.602Z,48.89
2023-05-06T13:52:30.368Z,47.23
2023-05-06T13:55:33.353Z,47.98
2023-05-06T13:58:36.259Z,47.23
2023-05-06T14:01:39.381Z,48.46
2023-05-06T14:04:42.296Z,47.72
2023-05-06T14:07:45.285Z,47.73
2023-05-06T14:10:48.249Z,47.26
2023-05-06T14:13:51.094Z,47.34
2023-05-06T14:16:54.915Z,44.65
2023-05-06T14:19:57.663Z,41.72
2023-05-06T14:23:00.778Z,43.22
2023-05-06T14:26:03.663Z,40.90
2023-05-06T14:29:06.516Z,40.19
2023-05-06T14:32:09.820Z,36.29
2023-05-06T14:35:12.957Z,34.48
2023-05-06T14:38:15.890Z,30.66
2023-05-06T14:41:18.733Z,30.11
2023-05-06T14:44:22.002Z,28.80
2023-05-06T14:47:24.792Z,29.85
2023-05-06T14:50:27.862Z,27.25
2023-05-06T14:53:31.121Z,29.68
2023-05-06T14:56:34.014Z,32.00
2023-05-06T14:59:37.540Z,31.92
2023-05-06T15:02:40.992Z,32.99
2023-05-06T15:05:43.867Z,29.65
2023-05-06T15:08:47.883Z,30.87
2023-05-06T15:11:50.750Z,33.49
2023-05-06T15:14:53.438Z,32.63
2023-05-06T15:17:56.340Z,34.18
2023-05-06T15:21:01.660Z,32.79
2023-05-06T15:24:04.798Z,35.14
2023-05-06T15:27:07.746Z,38.07
2023-05-06T15:30:10.905Z,39.50
2023-05-06T15:33:14.084Z,38.92
2023-05-06T15:36:16.899Z,37.64
2023-05-06T15:39:20.015Z,35.53
2023-05-06T15:42:22.785Z,35.46
2023-05-06T15:45:26.120Z,34.22
2023-05-06T15:48:29.562Z,33.73
2023-05-06T15:51:32.365Z,33.27
2023-05-06T15:54:37.549Z,33.46
2023-05-06T15:57:43.206Z,32.21
2023-05-06T16:00:46.152Z,32.92
2023-05-06T16:03:49.135Z,32.98
2023-05-06T16:06:52.081Z,32.56
2023-05-06T16:09:54.887Z,32.16
2023-05-06T16:12:57.859Z,32.46
2023-05-06T16:16:01.509Z,32.80
2023-05-06T16:19:04.761Z,32.93
2023-05-06T16:22:07.720Z,37.23
2023-05-06T16:25:10.595Z,42.02
2023-05-06T16:28:13.467Z,44.33
2023-05-06T16:31:16.854Z,46.69
2023-05-06T16:34:19.679Z,50.19
2023-05-06T16:37:22.771Z,54.32
2023-05-06T16:40:26.199Z,55.00
2023-05-06T16:43:29.005Z,55.49
2023-05-06T16:46:33.469Z,56.35
2023-05-06T16:49:36.305Z,57.52
2023-05-06T16:52:39.169Z,58.85
2023-05-06T16:55:47.680Z,61.63
2023-05-06T16:58:50.431Z,62.22
2023-05-06T17:01:53.217Z,61.70
2023-05-06T17:04:55.943Z,63.54
2023-05-06T17:07:59.322Z,65.64
2023-05-06T17:11:05.066Z,66.83
2023-05-06T17:14:08.437Z,68.75
2023-05-06T17:17:11.239Z,69.53
2023-05-06T17:20:14.232Z,71.04
2023-05-06T17:23:17.012Z,72.18
2023-05-06T17:26:20.178Z,69.20
2023-05-06T17:29:23.362Z,68.81
2023-05-06T17:32:26.369Z,69.31
2023-05-06T17:35:29.629Z,70.65
2023-05-06T17:38:32.397Z,72.40
2023-05-06T17:41:35.304Z,74.14
2023-05-06T17:44:39.493Z,75.21
2023-05-06T17:47:42.493Z,76.40
2023-05-06T17:50:45.557Z,76.61
2023-05-06T17:53:48.550Z,77.14
2023-05-06T17:56:53.090Z,77.79
2023-05-06T17:59:56.024Z,78.06
2023-05-06T18:02:59.416Z,79.96
2023-05-06T18:06:02.583Z,79.86
2023-05-06T18:09:05.903Z,80.05
2023-05-06T18:12:09.016Z,80.80
2023-05-06T18:15:12.336Z,80.64
2023-05-06T18:18:15.576Z,81.41
2023-05-06T18:21:18.586Z,82.12
2023-05-06T18:24:21.790Z,81.64
2023-05-06T18:27:25.733Z,81.79
2023-05-06T18:30:28.595Z,81.70
2023-05-06T18:33:31.459Z,82.63
2023-05-06T18:36:36.160Z,81.66
2023-05-06T18:39:43.003Z,82.90
2023-05-06T18:42:47.633Z,84.18
2023-05-06T18:45:52.216Z,83.86
2023-05-06T18:48:56.134Z,83.99
2023-05-06T18:51:58.985Z,85.51
2023-05-06T18:55:04.249Z,86.53
2023-05-06T18:58:07.247Z,86.80
2023-05-06T19:01:10.954Z,87.61
2023-05-06T19:04:14.119Z,90.13
2023-05-06T19:07:17.167Z,90.14
2023-05-06T19:10:20.086Z,90.72
2023-05-06T19:13:23.637Z,91.19
2023-05-06T19:16:27.056Z,91.27
2023-05-06T19:19:29.957Z,92.61
2023-05-06T19:22:33.456Z,93.56
2023-05-06T19:25:37.930Z,93.80
2023-05-06T19:28:40.877Z,93.95
2023-05-06T19:31:43.724Z,93.32
2023-05-06T19:34:46.502Z,94.54
2023-05-06T19:37:49.188Z,95.39
2023-05-06T19:40:52.362Z,96.17
2023-05-06T19:43:55.384Z,96.66
2023-05-06T19:46:58.131Z,95.91
2023-05-06T19:50:01.171Z,95.88
2023-05-06T19:53:04.272Z,96.78
2023-05-06T19:56:11.179Z,97.69
2023-05-06T19:59:14.125Z,97.51
2023-05-06T20:02:16.960Z,96.92
2023-05-06T20:05:19.852Z,96.40
2023-05-06T20:08:24.421Z,96.68
2023-05-06T20:11:27.291Z,97.36
2023-05-06T20:14:30.728Z,98.03
2023-05-06T20:17:34.787Z,98.97
2023-05-06T20:20:40.117Z,98.76
2023-05-06T20:23:42.891Z,99.57
2023-05-06T20:26:45.676Z,99.51
2023-05-06T20:29:49.985Z,99.79
2023-05-06T20:32:52.815Z,100.00
2023-05-06T20:35:56.465Z,100.00
2023-05-06T20:39:00.869Z,100.00
2023-05-06T20:42:03.801Z,100.00
2023-05-06T20:45:07.240Z,100.00
2023-05-06T20:48:11.690Z,100.00
2023-05-06T20:51:16.311Z,100.00
2023-05-06T20:54:19.132Z,100.00
2023-05-06T20:57:22.391Z,100.00
2023-05-06T21:00:25.291Z,100.00
2023-05-06T21:03:28.224Z,100.00
2023-05-06T21:06:32.253Z,100.00
2023-05-06T21:09:35.558Z,100.00
2023-05-06T21:12:38.693Z,100.00
2023-05-06T21:15:41.585Z,100.00
2023-05-06T21:18:44.831Z,100.00
2023-05-06T21:21:48.128Z,100.00
2023-05-06T21:24:51.358Z,100.00
2023-05-06T21:27:54.252Z,100.00
2023-05-06T21:30:57.189Z,100.00
2023-05-06T21:34:00.045Z,100.00
2023-05-06T21:37:02.827Z,100.00
2023-05-06T21:40:06.635Z,100.00
2023-05-06T21:43:09.486Z,100.00
2023-05-06T21:46:12.364Z,100.00
2023-05-06T21:49:15.735Z,100.00
2023-05-06T21:52:18.744Z,100.00
2023-05-06T21:55:21.595Z,100.00
2023-05-06T21:58:24.482Z,100.00
2023-05-06T22:01:27.421Z,100.00
2023-05-06T22:04:30.449Z,100.00
2023-05-06T22:07:33.445Z,100.00
2023-05-06T22:10:36.291Z,100.00
2023-05-06T22:13:39.095Z,100.00
2023-05-06T22:16:42.986Z,100.00
2023-05-06T22:19:46.686Z,100.00
2023-05-06T22:22:52.314Z,100.00
2023-05-06T22:25:55.212Z,100.00
2023-05-06T22:28:58.077Z,100.00
2023-05-06T22:32:01.362Z,100.00
2023-05-06T22:35:04.558Z,100.00
2023-05-06T22:38:07.520Z,100.00
2023-05-06T22:41:10.693Z,100.00
2023-05-06T22:44:13.913Z,100.00
2023-05-06T22:47:17.325Z,100.00
2023-05-06T22:50:20.105Z,100.00
2023-05-06T22:53:23.170Z,100.00
2023-05-06T22:56:26.193Z,100.00
2023-05-06T22:59:29.133Z,100.00
2023-05-06T23:02:32.090Z,100.00
2023-05-06T23:05:34.970Z,100.00
2023-05-06T23:08:37.792Z,100.00
2023-05-06T23:11:40.844Z,100.00
2023-05-06T23:14:43.719Z,100.00
2023-05-06T23:17:46.598Z,100.00
2023-05-06T23:20:49.642Z,100.00
2023-05-06T23:23:52.870Z,100.00
2023-05-06T23:26:55.790Z,100.00
2023-05-06T23:29:58.991Z,100.00
2023-05-06T23:33:01.867Z,100.00
2023-05-06T23:36:04.938Z,100.00
2023-05-06T23:39:10.905Z,100.00
2023-05-06T23:42:13.785Z,100.00
2023-05-06T23:45:16.596Z,100.00
2023-05-06T23:48:19.434Z,100.00
2023-05-06T23:51:22.329Z,100.00
2023-05-06T23:54:25.164Z,100.00
2023-05-06T23:57:28.057Z,100.00
